createdAt,value
2022-12-19T00:05:49.814Z,10.40
2022-12-19T00:11:43.446Z,11.47
2022-12-19T00:17:38.263Z,10.67
2022-12-19T00:23:33.831Z,11.00
2022-12-19T00:29:26.874Z,11.30
2022-12-19T00:35:21.773Z,9.90
2022-12-19T00:41:17.486Z,11.20
2022-12-19T00:47:10.906Z,11.70
2022-12-19T00:53:05.954Z,11.53
2022-12-19T00:59:01.146Z,11.27
2022-12-19T01:04:54.566Z,11.07
2022-12-19T01:10:51.209Z,10.67
2022-12-19T01:16:44.706Z,10.30
2022-12-19T01:22:38.238Z,10.50
2022-12-19T01:28:33.351Z,10.57
2022-12-19T01:34:26.664Z,10.27
2022-12-19T01:40:20.698Z,10.53
2022-12-19T01:46:17.301Z,10.47
2022-12-19T01:52:19.495Z,11.67
2022-12-19T01:58:18.807Z,11.00
2022-12-19T02:04:13.607Z,10.30
2022-12-19T02:10:08.291Z,9.57
2022-12-19T02:16:12.410Z,10.53
2022-12-19T02:22:18.894Z,10.60
2022-12-19T02:28:33.185Z,10.57
2022-12-19T02:34:33.369Z,9.63
2022-12-19T02:40:41.044Z,10.43
2022-12-19T02:46:36.762Z,9.73
2022-12-19T02:52:50.814Z,10.70
2022-12-19T02:59:01.356Z,9.27
2022-12-19T03:05:01.014Z,9.73
2022-12-19T03:11:01.796Z,11.03
2022-12-19T03:16:56.127Z,9.63
2022-12-19T03:22:49.894Z,10.70
2022-12-19T03:28:51.749Z,10.50
2022-12-19T03:34:49.133Z,10.87
2022-12-19T03:40:45.675Z,10.37
2022-12-19T03:46:44.319Z,9.60
2022-12-19T03:52:44.388Z,10.00
2022-12-19T03:58:41.551Z,9.87
2022-12-19T04:04:41.698Z,9.47
2022-12-19T04:10:40.016Z,9.80
2022-12-19T04:16:40.054Z,9.33
2022-12-19T04:22:40.181Z,9.67
2022-12-19T04:28:39.919Z,10.70
2022-12-19T04:34:33.720Z,9.80
2022-12-19T04:40:28.681Z,10.53
2022-12-19T04:46:22.142Z,10.20
2022-12-19T04:52:15.635Z,10.70
2022-12-19T04:58:10.416Z,9.83
2022-12-19T05:04:04.805Z,9.03
2022-12-19T05:09:58.446Z,9.50
2022-12-19T05:15:59.403Z,9.03
2022-12-19T05:21:52.843Z,9.83
2022-12-19T05:27:46.349Z,10.90
2022-12-19T05:33:41.605Z,10.30
2022-12-19T05:39:35.036Z,10.10
2022-12-19T05:45:28.528Z,9.87
2022-12-19T05:51:23.704Z,10.37
2022-12-19T05:57:16.690Z,10.63
2022-12-19T06:03:10.322Z,8.67
2022-12-19T06:09:05.977Z,9.60
2022-12-19T06:14:59.416Z,10.90
2022-12-19T06:20:57.899Z,9.07
2022-12-19T06:26:52.406Z,10.20
2022-12-19T06:32:46.125Z,10.33
2022-12-19T06:38:39.724Z,9.80
2022-12-19T06:44:35.127Z,10.60
2022-12-19T06:50:28.154Z,10.07
2022-12-19T06:56:21.593Z,9.90
2022-12-19T07:02:25.510Z,9.20
2022-12-19T07:08:18.735Z,9.37
2022-12-19T07:14:11.701Z,8.97
2022-12-19T07:20:07.628Z,9.97
2022-12-19T07:26:01.150Z,9.60
2022-12-19T07:31:54.758Z,9.30
2022-12-19T07:37:50.011Z,9.93
2022-12-19T07:43:43.658Z,8.50
2022-12-19T07:57:46.601Z,9.13
2022-12-19T08:03:51.175Z,9.67
2022-12-19T08:09:47.656Z,8.73
2022-12-19T08:15:42.086Z,9.47
2022-12-19T08:21:35.533Z,10.00
2022-12-19T08:27:29.499Z,10.63
2022-12-19T08:33:24.448Z,10.00
2022-12-19T08:39:18.037Z,9.90
2022-12-19T08:45:11.811Z,10.37
2022-12-19T08:51:08.892Z,10.10
2022-12-19T08:57:02.330Z,10.87
2022-12-19T09:02:55.950Z,11.40
2022-12-19T09:08:50.912Z,10.60
2022-12-19T09:14:45.550Z,11.40
2022-12-19T09:20:38.974Z,11.23
2022-12-19T09:26:34.060Z,10.77
2022-12-19T09:32:27.888Z,11.10
2022-12-19T09:38:22.296Z,11.90
2022-12-19T09:44:30.592Z,10.80
2022-12-19T09:50:32.303Z,12.37
2022-12-19T09:56:29.842Z,11.10
2022-12-19T10:02:52.808Z,10.97
2022-12-19T10:10:05.966Z,11.63
2022-12-19T10:15:07.740Z,11.93
2022-12-19T10:21:07.901Z,11.00
2022-12-19T10:27:03.133Z,10.90
2022-12-19T10:33:04.610Z,11.53
2022-12-19T10:39:03.238Z,11.60
2022-12-19T10:45:00.412Z,12.00
2022-12-19T10:50:53.858Z,11.70
2022-12-19T10:56:48.934Z,11.20
2022-12-19T11:02:45.241Z,11.30
2022-12-19T11:08:39.137Z,11.40
2022-12-19T11:18:05.008Z,10.97
2022-12-19T11:29:19.663Z,10.97
2022-12-19T11:30:47.443Z,11.07
2022-12-19T11:34:08.563Z,10.40
2022-12-19T11:40:06.397Z,11.37
2022-12-19T11:46:04.034Z,11.93
2022-12-19T11:52:04.331Z,11.60
2022-12-19T11:57:58.736Z,10.93
2022-12-19T12:04:13.887Z,11.90
2022-12-19T12:16:41.385Z,12.00
2022-12-19T12:30:35.419Z,12.43
2022-12-19T12:31:07.147Z,12.33
2022-12-19T12:31:44.956Z,13.67
2022-12-19T12:37:54.048Z,12.80
2022-12-19T12:42:13.834Z,11.80
2022-12-19T12:48:21.015Z,13.30
2022-12-19T12:54:16.370Z,12.20
2022-12-19T13:00:22.180Z,13.03
2022-12-19T13:06:28.636Z,12.33
2022-12-19T13:12:43.992Z,11.83
2022-12-19T13:18:41.387Z,12.63
2022-12-19T13:24:41.924Z,12.03
2022-12-19T13:30:51.901Z,10.60
2022-12-19T13:39:56.784Z,12.40
2022-12-19T13:43:35.982Z,11.20
2022-12-19T13:49:34.347Z,10.70
2022-12-19T13:55:31.116Z,11.83
2022-12-19T14:01:29.918Z,10.50
2022-12-19T14:07:38.933Z,12.00
2022-12-19T14:14:01.306Z,12.70
2022-12-19T14:20:34.119Z,11.20
2022-12-19T14:28:25.899Z,13.10
2022-12-19T14:33:46.021Z,11.77
2022-12-19T14:39:23.171Z,12.20
2022-12-19T14:51:51.398Z,14.10
2022-12-19T14:54:28.918Z,12.80
2022-12-19T14:58:55.636Z,13.30
2022-12-19T15:04:50.818Z,14.20
2022-12-19T15:11:08.239Z,14.60
2022-12-19T15:17:32.916Z,15.10
2022-12-19T15:23:26.830Z,15.53
2022-12-19T15:29:29.658Z,15.40
2022-12-19T15:35:24.995Z,15.90
2022-12-19T15:41:27.357Z,16.77
2022-12-19T15:47:28.691Z,16.70
2022-12-19T15:53:39.894Z,17.00
2022-12-19T15:59:37.398Z,17.43
2022-12-19T16:05:33.905Z,17.67
2022-12-19T16:11:28.901Z,16.77
2022-12-19T16:17:24.759Z,19.63
2022-12-19T16:23:19.185Z,18.13
2022-12-19T16:29:20.657Z,18.17
2022-12-19T16:35:24.024Z,18.00
2022-12-19T16:41:41.900Z,18.87
2022-12-19T16:48:15.830Z,18.80
2022-12-19T16:54:10.952Z,19.10
2022-12-19T17:00:17.056Z,19.20
2022-12-19T17:06:13.463Z,17.70
2022-12-19T17:12:07.982Z,18.60
2022-12-19T17:18:04.036Z,18.63
2022-12-19T17:23:58.901Z,18.77
2022-12-19T17:29:52.511Z,18.90
2022-12-19T17:35:46.165Z,19.27
2022-12-19T17:41:41.003Z,18.80
2022-12-19T17:47:34.416Z,18.70
2022-12-19T17:53:27.868Z,20.17
2022-12-19T17:59:22.675Z,19.60
2022-12-19T18:05:22.424Z,19.87
2022-12-19T18:11:20.337Z,19.07
2022-12-19T18:17:22.014Z,19.67
2022-12-19T18:23:18.878Z,19.67
2022-12-19T18:29:12.391Z,20.50
2022-12-19T18:35:08.120Z,18.70
2022-12-19T18:41:01.751Z,20.60
2022-12-19T18:46:55.297Z,17.43
2022-12-19T18:52:50.508Z,19.80
2022-12-19T18:58:43.964Z,18.20
2022-12-19T19:04:37.453Z,17.27
2022-12-19T19:10:36.395Z,19.20
2022-12-19T19:16:34.795Z,17.80
2022-12-19T19:22:28.276Z,18.70
2022-12-19T19:28:23.171Z,16.83
2022-12-19T19:34:22.625Z,17.73
2022-12-19T19:40:16.355Z,17.50
2022-12-19T19:46:11.390Z,16.97
2022-12-19T19:52:05.042Z,16.40
2022-12-19T19:57:58.440Z,17.03
2022-12-19T20:03:52.957Z,17.30
2022-12-19T20:09:46.538Z,14.93
2022-12-19T20:15:46.058Z,15.30
2022-12-19T20:21:44.663Z,14.83
2022-12-19T20:27:38.218Z,15.43
2022-12-19T20:33:31.700Z,15.70
2022-12-19T20:39:27.013Z,15.53
2022-12-19T20:45:22.291Z,14.43
2022-12-19T20:51:17.377Z,14.53
2022-12-19T20:57:11.792Z,16.43
2022-12-19T21:09:19.210Z,14.93
2022-12-19T21:15:14.378Z,15.70
2022-12-19T21:21:08.559Z,15.97
2022-12-19T21:27:01.985Z,14.80
2022-12-19T21:32:57.080Z,14.60
2022-12-19T21:38:52.108Z,15.23
2022-12-19T21:44:45.819Z,13.57
2022-12-19T21:50:40.628Z,13.80
2022-12-19T21:56:35.698Z,14.60
2022-12-19T22:02:29.241Z,14.03
2022-12-19T22:08:24.093Z,14.73
2022-12-19T22:14:18.975Z,14.33
2022-12-19T22:20:12.605Z,15.07
2022-12-19T22:26:11.687Z,14.50
2022-12-19T22:32:05.911Z,13.20
2022-12-19T22:37:59.668Z,13.07
2022-12-19T22:43:54.902Z,12.83
2022-12-19T22:49:48.387Z,14.17
2022-12-19T22:55:41.799Z,13.50
2022-12-19T23:01:38.468Z,12.90
2022-12-19T23:07:32.103Z,13.00
2022-12-19T23:13:27.068Z,12.87
2022-12-19T23:19:21.919Z,12.93
2022-12-19T23:25:15.058Z,13.43
2022-12-19T23:31:10.765Z,12.80
2022-12-19T23:37:13.068Z,12.13
2022-12-19T23:43:07.076Z,12.70
2022-12-19T23:49:00.605Z,11.30
2022-12-19T23:54:55.433Z,10.60
